sensor_id;sensor_type;location;lat;lon;timestamp;P1;durP1;ratioP1;P2;durP2;ratioP2
31531;SDS011;23787;52.180;5.288;2022-08-18T00:03:32;183.50;;;166.50;;
31531;SDS011;23787;52.180;5.288;2022-08-18T00:13:32;196.60;;;179.40;;
31531;SDS011;23787;52.180;5.288;2022-08-18T00:18:32;196.60;;;179.40;;
31531;SDS011;23787;52.180;5.288;2022-08-18T00:23:32;196.60;;;179.40;;
31531;SDS011;23787;52.180;5.288;2022-08-18T00:33:32;191.40;;;174.80;;
31531;SDS011;23787;52.180;5.288;2022-08-18T00:43:36;200.20;;;184.20;;
31531;SDS011;23787;52.180;5.288;2022-08-18T00:53:36;200.20;;;184.20;;
31531;SDS011;23787;52.180;5.288;2022-08-18T00:58:36;202.00;;;185.80;;
31531;SDS011;23787;52.180;5.288;2022-08-18T01:08:32;202.00;;;185.80;;
31531;SDS011;23787;52.180;5.288;2022-08-18T01:13:32;205.20;;;187.40;;
31531;SDS011;23787;52.180;5.288;2022-08-18T01:18:32;205.20;;;187.40;;
31531;SDS011;23787;52.180;5.288;2022-08-18T01:23:33;205.20;;;187.40;;
31531;SDS011;23787;52.180;5.288;2022-08-18T01:28:34;206.40;;;187.30;;
31531;SDS011;23787;52.180;5.288;2022-08-18T01:38:32;206.40;;;187.30;;
31531;SDS011;23787;52.180;5.288;2022-08-18T01:43:32;191.00;;;174.00;;
31531;SDS011;23787;52.180;5.288;2022-08-18T01:48:33;191.00;;;174.00;;
31531;SDS011;23787;52.180;5.288;2022-08-18T01:53:32;191.00;;;174.00;;
31531;SDS011;23787;52.180;5.288;2022-08-18T02:03:34;218.60;;;199.30;;
31531;SDS011;23787;52.180;5.288;2022-08-18T02:08:32;218.60;;;199.30;;
31531;SDS011;23787;52.180;5.288;2022-08-18T02:18:35;232.30;;;213.10;;
31531;SDS011;23787;52.180;5.288;2022-08-18T02:23:32;232.30;;;213.10;;
31531;SDS011;23787;52.180;5.288;2022-08-18T02:28:32;269.70;;;246.70;;
31531;SDS011;23787;52.180;5.288;2022-08-18T02:38:33;269.70;;;246.70;;
31531;SDS011;23787;52.180;5.288;2022-08-18T03:03:32;260.70;;;239.10;;
31531;SDS011;23787;52.180;5.288;2022-08-18T03:13:32;204.50;;;187.70;;
31531;SDS011;23787;52.180;5.288;2022-08-18T03:18:32;204.50;;;187.70;;
31531;SDS011;23787;52.180;5.288;2022-08-18T03:28:32;252.60;;;231.60;;
31531;SDS011;23787;52.180;5.288;2022-08-18T03:33:32;252.60;;;231.60;;
31531;SDS011;23787;52.180;5.288;2022-08-18T03:53:32;263.90;;;242.40;;
31531;SDS011;23787;52.180;5.288;2022-08-18T03:58:32;256.90;;;235.40;;
31531;SDS011;23787;52.180;5.288;2022-08-18T04:03:32;256.90;;;235.40;;
31531;SDS011;23787;52.180;5.288;2022-08-18T04:08:32;256.90;;;235.40;;
31531;SDS011;23787;52.180;5.288;2022-08-18T04:23:32;226.10;;;207.00;;
31531;SDS011;23787;52.180;5.288;2022-08-18T04:28:33;236.70;;;217.10;;
31531;SDS011;23787;52.180;5.288;2022-08-18T04:33:32;236.70;;;217.10;;
31531;SDS011;23787;52.180;5.288;2022-08-18T04:53:33;258.90;;;237.40;;
31531;SDS011;23787;52.180;5.288;2022-08-18T04:58:32;260.20;;;238.90;;
31531;SDS011;23787;52.180;5.288;2022-08-18T05:03:32;260.20;;;238.90;;
31531;SDS011;23787;52.180;5.288;2022-08-18T05:08:32;260.20;;;238.90;;
31531;SDS011;23787;52.180;5.288;2022-08-18T05:13:35;unknown;;;unknown;;
31531;SDS011;23787;52.180;5.288;2022-08-18T05:17:56;unknown;;;unknown;;
31531;SDS011;23787;52.180;5.288;2022-08-18T05:27:56;245.00;;;224.10;;
31531;SDS011;23787;52.180;5.288;2022-08-18T05:32:56;245.00;;;224.10;;
31531;SDS011;23787;52.180;5.288;2022-08-18T05:38:14;245.00;;;224.10;;
31531;SDS011;23787;52.180;5.288;2022-08-18T05:42:58;247.70;;;226.70;;
31531;SDS011;23787;52.180;5.288;2022-08-18T05:47:57;247.70;;;226.70;;
31531;SDS011;23787;52.180;5.288;2022-08-18T05:52:59;247.70;;;226.70;;
31531;SDS011;23787;52.180;5.288;2022-08-18T05:57:58;256.20;;;236.40;;
31531;SDS011;23787;52.180;5.288;2022-08-18T06:03:00;256.20;;;236.40;;
31531;SDS011;23787;52.180;5.288;2022-08-18T06:07:59;256.20;;;236.40;;
31531;SDS011;23787;52.180;5.288;2022-08-18T06:12:58;234.20;;;215.60;;
31531;SDS011;23787;52.180;5.288;2022-08-18T06:18:07;234.20;;;215.60;;
31531;SDS011;23787;52.180;5.288;2022-08-18T06:23:02;234.20;;;215.60;;
31531;SDS011;23787;52.180;5.288;2022-08-18T06:28:02;172.60;;;158.00;;
31531;SDS011;23787;52.180;5.288;2022-08-18T06:33:16;172.60;;;158.00;;
31531;SDS011;23787;52.180;5.288;2022-08-18T06:38:02;172.60;;;158.00;;
31531;SDS011;23787;52.180;5.288;2022-08-18T06:42:56;145.20;;;130.80;;
31531;SDS011;23787;52.180;5.288;2022-08-18T06:48:02;145.20;;;130.80;;
31531;SDS011;23787;52.180;5.288;2022-08-18T06:52:58;145.20;;;130.80;;
31531;SDS011;23787;52.180;5.288;2022-08-18T06:57:58;103.00;;;93.50;;
31531;SDS011;23787;52.180;5.288;2022-08-18T07:02:59;103.00;;;93.50;;
31531;SDS011;23787;52.180;5.288;2022-08-18T07:08:05;103.00;;;93.50;;
31531;SDS011;23787;52.180;5.288;2022-08-18T07:13:11;67.70;;;61.00;;
31531;SDS011;23787;52.180;5.288;2022-08-18T07:18:03;67.70;;;61.00;;
31531;SDS011;23787;52.180;5.288;2022-08-18T07:23:00;67.70;;;61.00;;
31531;SDS011;23787;52.180;5.288;2022-08-18T07:33:04;45.00;;;40.30;;
31531;SDS011;23787;52.180;5.288;2022-08-18T07:38:00;45.00;;;40.30;;
31531;SDS011;23787;52.180;5.288;2022-08-18T07:43:00;31.00;;;28.10;;
31531;SDS011;23787;52.180;5.288;2022-08-18T07:48:02;31.00;;;28.10;;
31531;SDS011;23787;52.180;5.288;2022-08-18T07:53:04;31.00;;;28.10;;
31531;SDS011;23787;52.180;5.288;2022-08-18T07:58:05;22.80;;;20.50;;
31531;SDS011;23787;52.180;5.288;2022-08-18T08:03:06;22.80;;;20.50;;
31531;SDS011;23787;52.180;5.288;2022-08-18T08:08:00;22.80;;;20.50;;
31531;SDS011;23787;52.180;5.288;2022-08-18T08:13:07;16.80;;;15.20;;
31531;SDS011;23787;52.180;5.288;2022-08-18T08:19:04;unknown;;;unknown;;
31531;SDS011;23787;52.180;5.288;2022-08-18T08:24:09;17.30;;;15.30;;
31531;SDS011;23787;52.180;5.288;2022-08-18T08:29:06;17.30;;;15.30;;
31531;SDS011;23787;52.180;5.288;2022-08-18T08:34:02;17.30;;;15.30;;
31531;SDS011;23787;52.180;5.288;2022-08-18T08:39:00;10.70;;;9.80;;
31531;SDS011;23787;52.180;5.288;2022-08-18T08:44:02;10.70;;;9.80;;
31531;SDS011;23787;52.180;5.288;2022-08-18T08:49:02;10.70;;;9.80;;
31531;SDS011;23787;52.180;5.288;2022-08-18T08:54:03;9.10;;;8.20;;
31531;SDS011;23787;52.180;5.288;2022-08-18T08:59:00;9.10;;;8.20;;
31531;SDS011;23787;52.180;5.288;2022-08-18T09:04:01;9.10;;;8.20;;
31531;SDS011;23787;52.180;5.288;2022-08-18T09:09:09;12.40;;;11.30;;
31531;SDS011;23787;52.180;5.288;2022-08-18T09:14:08;12.40;;;11.30;;
31531;SDS011;23787;52.180;5.288;2022-08-18T09:19:18;12.40;;;11.30;;
31531;SDS011;23787;52.180;5.288;2022-08-18T09:24:07;10.20;;;9.30;;
31531;SDS011;23787;52.180;5.288;2022-08-18T09:29:16;10.20;;;9.30;;
31531;SDS011;23787;52.180;5.288;2022-08-18T09:34:12;10.20;;;9.30;;
31531;SDS011;23787;52.180;5.288;2022-08-18T09:39:08;7.50;;;6.80;;
31531;SDS011;23787;52.180;5.288;2022-08-18T09:44:00;7.50;;;6.80;;
31531;SDS011;23787;52.180;5.288;2022-08-18T09:54:11;13.00;;;11.60;;
31531;SDS011;23787;52.180;5.288;2022-08-18T09:58:58;13.00;;;11.60;;
31531;SDS011;23787;52.180;5.288;2022-08-18T10:09:06;9.30;;;8.30;;
31531;SDS011;23787;52.180;5.288;2022-08-18T10:14:08;9.30;;;8.30;;
31531;SDS011;23787;52.180;5.288;2022-08-18T10:24:13;10.00;;;9.10;;
31531;SDS011;23787;52.180;5.288;2022-08-18T10:28:59;10.00;;;9.10;;
31531;SDS011;23787;52.180;5.288;2022-08-18T10:34:01;10.00;;;9.10;;
31531;SDS011;23787;52.180;5.288;2022-08-18T10:38:58;14.80;;;13.20;;
31531;SDS011;23787;52.180;5.288;2022-08-18T10:43:59;14.80;;;13.20;;
31531;SDS011;23787;52.180;5.288;2022-08-18T10:49:01;14.80;;;13.20;;
31531;SDS011;23787;52.180;5.288;2022-08-18T10:54:03;14.80;;;13.50;;
31531;SDS011;23787;52.180;5.288;2022-08-18T10:59:02;14.80;;;13.50;;
31531;SDS011;23787;52.180;5.288;2022-08-18T11:04:02;14.80;;;13.50;;
31531;SDS011;23787;52.180;5.288;2022-08-18T11:08:59;17.30;;;15.70;;
31531;SDS011;23787;52.180;5.288;2022-08-18T11:14:02;17.30;;;15.70;;
31531;SDS011;23787;52.180;5.288;2022-08-18T11:19:07;17.30;;;15.70;;
31531;SDS011;23787;52.180;5.288;2022-08-18T11:24:01;15.30;;;14.10;;
31531;SDS011;23787;52.180;5.288;2022-08-18T11:28:57;15.30;;;14.10;;
31531;SDS011;23787;52.180;5.288;2022-08-18T11:33:57;15.30;;;14.10;;
31531;SDS011;23787;52.180;5.288;2022-08-18T11:38:57;12.70;;;11.40;;
31531;SDS011;23787;52.180;5.288;2022-08-18T11:43:58;12.70;;;11.40;;
31531;SDS011;23787;52.180;5.288;2022-08-18T11:54:18;11.30;;;10.20;;
31531;SDS011;23787;52.180;5.288;2022-08-18T11:58:59;11.30;;;10.20;;
31531;SDS011;23787;52.180;5.288;2022-08-18T12:03:58;11.30;;;10.20;;
31531;SDS011;23787;52.180;5.288;2022-08-18T12:09:00;15.00;;;13.50;;
31531;SDS011;23787;52.180;5.288;2022-08-18T12:14:04;15.00;;;13.50;;
31531;SDS011;23787;52.180;5.288;2022-08-18T12:19:00;15.00;;;13.50;;
31531;SDS011;23787;52.180;5.288;2022-08-18T12:23:57;13.70;;;12.40;;
31531;SDS011;23787;52.180;5.288;2022-08-18T12:28:57;13.70;;;12.40;;
31531;SDS011;23787;52.180;5.288;2022-08-18T12:33:57;13.70;;;12.40;;
31531;SDS011;23787;52.180;5.288;2022-08-18T12:38:57;16.00;;;14.60;;
31531;SDS011;23787;52.180;5.288;2022-08-18T12:43:57;16.00;;;14.60;;
31531;SDS011;23787;52.180;5.288;2022-08-18T12:48:58;16.00;;;14.60;;
31531;SDS011;23787;52.180;5.288;2022-08-18T12:53:57;16.00;;;14.30;;
31531;SDS011;23787;52.180;5.288;2022-08-18T13:03:58;16.00;;;14.30;;
31531;SDS011;23787;52.180;5.288;2022-08-18T13:08:57;18.20;;;16.80;;
31531;SDS011;23787;52.180;5.288;2022-08-18T13:18:57;18.20;;;16.80;;
31531;SDS011;23787;52.180;5.288;2022-08-18T13:23:57;14.90;;;13.50;;
31531;SDS011;23787;52.180;5.288;2022-08-18T13:28:59;14.90;;;13.50;;
31531;SDS011;23787;52.180;5.288;2022-08-18T13:33:58;14.90;;;13.50;;
31531;SDS011;23787;52.180;5.288;2022-08-18T13:38:58;19.20;;;17.50;;
31531;SDS011;23787;52.180;5.288;2022-08-18T13:43:57;19.20;;;17.50;;
31531;SDS011;23787;52.180;5.288;2022-08-18T13:48:58;19.20;;;17.50;;
31531;SDS011;23787;52.180;5.288;2022-08-18T13:53:59;18.70;;;17.30;;
31531;SDS011;23787;52.180;5.288;2022-08-18T13:58:58;18.70;;;17.30;;
31531;SDS011;23787;52.180;5.288;2022-08-18T14:03:58;18.70;;;17.30;;
31531;SDS011;23787;52.180;5.288;2022-08-18T14:08:57;11.90;;;10.70;;
31531;SDS011;23787;52.180;5.288;2022-08-18T14:13:58;11.90;;;10.70;;
31531;SDS011;23787;52.180;5.288;2022-08-18T14:18:58;11.90;;;10.70;;
31531;SDS011;23787;52.180;5.288;2022-08-18T14:23:58;9.50;;;8.70;;
31531;SDS011;23787;52.180;5.288;2022-08-18T14:28:57;9.50;;;8.70;;
31531;SDS011;23787;52.180;5.288;2022-08-18T14:33:58;9.50;;;8.70;;
31531;SDS011;23787;52.180;5.288;2022-08-18T14:38:58;18.10;;;16.30;;
31531;SDS011;23787;52.180;5.288;2022-08-18T14:43:58;18.10;;;16.30;;
31531;SDS011;23787;52.180;5.288;2022-08-18T14:48:58;18.10;;;16.30;;
31531;SDS011;23787;52.180;5.288;2022-08-18T14:53:58;13.40;;;11.80;;
31531;SDS011;23787;52.180;5.288;2022-08-18T14:58:58;13.40;;;11.80;;
31531;SDS011;23787;52.180;5.288;2022-08-18T15:03:58;13.40;;;11.80;;
31531;SDS011;23787;52.180;5.288;2022-08-18T15:08:57;19.10;;;17.60;;
31531;SDS011;23787;52.180;5.288;2022-08-18T15:13:58;19.10;;;17.60;;
31531;SDS011;23787;52.180;5.288;2022-08-18T15:18:58;19.10;;;17.60;;
31531;SDS011;23787;52.180;5.288;2022-08-18T15:23:58;18.80;;;16.40;;
31531;SDS011;23787;52.180;5.288;2022-08-18T15:28:58;18.80;;;16.40;;
31531;SDS011;23787;52.180;5.288;2022-08-18T15:33:58;18.80;;;16.40;;
31531;SDS011;23787;52.180;5.288;2022-08-18T15:38:58;24.20;;;21.90;;
31531;SDS011;23787;52.180;5.288;2022-08-18T15:43:58;24.20;;;21.90;;
31531;SDS011;23787;52.180;5.288;2022-08-18T15:48:58;24.20;;;21.90;;
31531;SDS011;23787;52.180;5.288;2022-08-18T15:53:58;17.80;;;16.30;;
31531;SDS011;23787;52.180;5.288;2022-08-18T16:03:58;17.80;;;16.30;;
31531;SDS011;23787;52.180;5.288;2022-08-18T16:08:59;17.40;;;16.00;;
31531;SDS011;23787;52.180;5.288;2022-08-18T16:13:58;17.40;;;16.00;;
31531;SDS011;23787;52.180;5.288;2022-08-18T16:18:58;17.40;;;16.00;;
31531;SDS011;23787;52.180;5.288;2022-08-18T16:23:58;19.90;;;17.20;;
31531;SDS011;23787;52.180;5.288;2022-08-18T16:28:58;19.90;;;17.20;;
31531;SDS011;23787;52.180;5.288;2022-08-18T16:38:58;13.90;;;12.50;;
31531;SDS011;23787;52.180;5.288;2022-08-18T16:43:58;13.90;;;12.50;;
31531;SDS011;23787;52.180;5.288;2022-08-18T16:48:58;13.90;;;12.50;;
31531;SDS011;23787;52.180;5.288;2022-08-18T16:53:58;13.60;;;12.40;;
31531;SDS011;23787;52.180;5.288;2022-08-18T16:58:58;13.60;;;12.40;;
31531;SDS011;23787;52.180;5.288;2022-08-18T17:03:58;13.60;;;12.40;;
31531;SDS011;23787;52.180;5.288;2022-08-18T17:08:58;15.70;;;14.30;;
31531;SDS011;23787;52.180;5.288;2022-08-18T17:13:59;15.70;;;14.30;;
31531;SDS011;23787;52.180;5.288;2022-08-18T17:18:58;15.70;;;14.30;;
31531;SDS011;23787;52.180;5.288;2022-08-18T17:23:59;12.00;;;11.00;;
31531;SDS011;23787;52.180;5.288;2022-08-18T17:29:02;12.00;;;11.00;;
31531;SDS011;23787;52.180;5.288;2022-08-18T17:34:05;12.00;;;11.00;;
31531;SDS011;23787;52.180;5.288;2022-08-18T17:39:00;14.00;;;12.70;;
31531;SDS011;23787;52.180;5.288;2022-08-18T17:43:58;14.00;;;12.70;;
31531;SDS011;23787;52.180;5.288;2022-08-18T17:49:01;14.00;;;12.70;;
31531;SDS011;23787;52.180;5.288;2022-08-18T17:53:59;16.70;;;15.20;;
31531;SDS011;23787;52.180;5.288;2022-08-18T17:59:05;16.70;;;15.20;;
31531;SDS011;23787;52.180;5.288;2022-08-18T18:03:58;16.70;;;15.20;;
31531;SDS011;23787;52.180;5.288;2022-08-18T18:09:03;17.40;;;15.60;;
31531;SDS011;23787;52.180;5.288;2022-08-18T18:13:59;17.40;;;15.60;;
31531;SDS011;23787;52.180;5.288;2022-08-18T18:19:00;17.40;;;15.60;;
31531;SDS011;23787;52.180;5.288;2022-08-18T18:24:12;17.80;;;16.10;;
31531;SDS011;23787;52.180;5.288;2022-08-18T18:29:09;17.80;;;16.10;;
31531;SDS011;23787;52.180;5.288;2022-08-18T18:34:01;17.80;;;16.10;;
31531;SDS011;23787;52.180;5.288;2022-08-18T18:44:05;20.30;;;18.20;;
31531;SDS011;23787;52.180;5.288;2022-08-18T18:49:05;20.30;;;18.20;;
31531;SDS011;23787;52.180;5.288;2022-08-18T18:54:03;14.60;;;13.20;;
31531;SDS011;23787;52.180;5.288;2022-08-18T18:59:08;14.60;;;13.20;;
31531;SDS011;23787;52.180;5.288;2022-08-18T19:04:02;14.60;;;13.20;;
31531;SDS011;23787;52.180;5.288;2022-08-18T19:09:03;28.40;;;25.50;;
31531;SDS011;23787;52.180;5.288;2022-08-18T19:14:31;28.40;;;25.50;;
31531;SDS011;23787;52.180;5.288;2022-08-18T19:19:02;28.40;;;25.50;;
31531;SDS011;23787;52.180;5.288;2022-08-18T19:24:01;25.50;;;23.20;;
31531;SDS011;23787;52.180;5.288;2022-08-18T19:29:00;25.50;;;23.20;;
31531;SDS011;23787;52.180;5.288;2022-08-18T19:34:01;25.50;;;23.20;;
31531;SDS011;23787;52.180;5.288;2022-08-18T19:39:05;32.00;;;29.30;;
31531;SDS011;23787;52.180;5.288;2022-08-18T19:44:04;32.00;;;29.30;;
31531;SDS011;23787;52.180;5.288;2022-08-18T19:49:03;32.00;;;29.30;;
31531;SDS011;23787;52.180;5.288;2022-08-18T19:59:07;25.90;;;23.40;;
31531;SDS011;23787;52.180;5.288;2022-08-18T20:04:05;25.90;;;23.40;;
31531;SDS011;23787;52.180;5.288;2022-08-18T20:09:07;36.00;;;32.70;;
31531;SDS011;23787;52.180;5.288;2022-08-18T20:13:59;36.00;;;32.70;;
31531;SDS011;23787;52.180;5.288;2022-08-18T20:18:59;36.00;;;32.70;;
31531;SDS011;23787;52.180;5.288;2022-08-18T20:24:00;50.60;;;45.70;;
31531;SDS011;23787;52.180;5.288;2022-08-18T20:28:58;50.60;;;45.70;;
31531;SDS011;23787;52.180;5.288;2022-08-18T20:38:59;54.50;;;49.50;;
31531;SDS011;23787;52.180;5.288;2022-08-18T20:44:16;54.50;;;49.50;;
31531;SDS011;23787;52.180;5.288;2022-08-18T20:54:03;51.70;;;46.70;;
31531;SDS011;23787;52.180;5.288;2022-08-18T21:03:58;51.70;;;46.70;;
31531;SDS011;23787;52.180;5.288;2022-08-18T21:08:58;68.60;;;62.00;;
31531;SDS011;23787;52.180;5.288;2022-08-18T21:29:03;72.30;;;65.50;;
31531;SDS011;23787;52.180;5.288;2022-08-18T21:34:00;72.30;;;65.50;;
31531;SDS011;23787;52.180;5.288;2022-08-18T21:38:59;93.90;;;85.50;;
31531;SDS011;23787;52.180;5.288;2022-08-18T21:44:02;93.90;;;85.50;;
31531;SDS011;23787;52.180;5.288;2022-08-18T21:49:01;93.90;;;85.50;;
31531;SDS011;23787;52.180;5.288;2022-08-18T21:53:59;80.70;;;73.60;;
31531;SDS011;23787;52.180;5.288;2022-08-18T22:03:59;80.70;;;73.60;;
31531;SDS011;23787;52.180;5.288;2022-08-18T22:14:11;77.10;;;70.00;;
31531;SDS011;23787;52.180;5.288;2022-08-18T22:19:09;77.10;;;70.00;;
31531;SDS011;23787;52.180;5.288;2022-08-18T22:29:02;113.40;;;102.90;;
31531;SDS011;23787;52.180;5.288;2022-08-18T22:34:01;113.40;;;102.90;;
31531;SDS011;23787;52.180;5.288;2022-08-18T22:38:58;108.30;;;97.90;;
31531;SDS011;23787;52.180;5.288;2022-08-18T22:43:58;108.30;;;97.90;;
31531;SDS011;23787;52.180;5.288;2022-08-18T22:48:58;108.30;;;97.90;;
31531;SDS011;23787;52.180;5.288;2022-08-18T22:58:58;134.30;;;122.10;;
31531;SDS011;23787;52.180;5.288;2022-08-18T23:03:58;134.30;;;122.10;;
31531;SDS011;23787;52.180;5.288;2022-08-18T23:13:59;129.90;;;118.40;;
31531;SDS011;23787;52.180;5.288;2022-08-18T23:18:58;129.90;;;118.40;;
31531;SDS011;23787;52.180;5.288;2022-08-18T23:23:58;158.90;;;145.60;;
31531;SDS011;23787;52.180;5.288;2022-08-18T23:28:58;158.90;;;145.60;;
31531;SDS011;23787;52.180;5.288;2022-08-18T23:33:59;158.90;;;145.60;;
31531;SDS011;23787;52.180;5.288;2022-08-18T23:38:58;157.70;;;143.80;;
31531;SDS011;23787;52.180;5.288;2022-08-18T23:49:00;157.70;;;143.80;;
